sensor_id;sensor_type;location;lat;lon;timestamp;P1;durP1;ratioP1;P2;durP2;ratioP2
12840;SDS011;6487;48.626;12.486;2022-07-06T00:02:18;1.87;;;1.30;;
12840;SDS011;6487;48.626;12.486;2022-07-06T00:04:47;1.70;;;1.50;;
12840;SDS011;6487;48.626;12.486;2022-07-06T00:07:15;2.20;;;1.77;;
12840;SDS011;6487;48.626;12.486;2022-07-06T00:09:44;3.73;;;1.47;;
12840;SDS011;6487;48.626;12.486;2022-07-06T00:12:13;1.60;;;1.50;;
12840;SDS011;6487;48.626;12.486;2022-07-06T00:14:42;2.00;;;1.30;;
12840;SDS011;6487;48.626;12.486;2022-07-06T00:17:10;1.93;;;1.43;;
12840;SDS011;6487;48.626;12.486;2022-07-06T00:19:39;5.03;;;1.30;;
12840;SDS011;6487;48.626;12.486;2022-07-06T00:22:07;3.63;;;1.40;;
12840;SDS011;6487;48.626;12.486;2022-07-06T00:24:35;6.13;;;1.73;;
12840;SDS011;6487;48.626;12.486;2022-07-06T00:27:04;1.93;;;1.23;;
12840;SDS011;6487;48.626;12.486;2022-07-06T00:29:34;3.80;;;1.50;;
12840;SDS011;6487;48.626;12.486;2022-07-06T00:32:02;1.37;;;1.27;;
12840;SDS011;6487;48.626;12.486;2022-07-06T00:34:31;1.93;;;1.57;;
12840;SDS011;6487;48.626;12.486;2022-07-06T00:37:01;4.03;;;1.60;;
12840;SDS011;6487;48.626;12.486;2022-07-06T00:39:30;2.10;;;1.60;;
12840;SDS011;6487;48.626;12.486;2022-07-06T00:41:58;2.90;;;1.67;;
12840;SDS011;6487;48.626;12.486;2022-07-06T00:44:27;1.50;;;1.37;;
12840;SDS011;6487;48.626;12.486;2022-07-06T00:46:57;3.47;;;1.80;;
12840;SDS011;6487;48.626;12.486;2022-07-06T00:49:25;4.33;;;1.73;;
12840;SDS011;6487;48.626;12.486;2022-07-06T00:52:11;3.40;;;1.73;;
12840;SDS011;6487;48.626;12.486;2022-07-06T00:54:40;2.77;;;1.40;;
12840;SDS011;6487;48.626;12.486;2022-07-06T00:57:10;4.63;;;1.70;;
12840;SDS011;6487;48.626;12.486;2022-07-06T00:59:39;1.50;;;1.37;;
12840;SDS011;6487;48.626;12.486;2022-07-06T01:02:09;5.33;;;1.73;;
12840;SDS011;6487;48.626;12.486;2022-07-06T01:04:37;3.17;;;1.60;;
12840;SDS011;6487;48.626;12.486;2022-07-06T01:07:06;1.80;;;1.70;;
12840;SDS011;6487;48.626;12.486;2022-07-06T01:09:34;1.90;;;1.57;;
12840;SDS011;6487;48.626;12.486;2022-07-06T01:12:03;2.00;;;1.40;;
12840;SDS011;6487;48.626;12.486;2022-07-06T01:14:32;1.77;;;1.40;;
12840;SDS011;6487;48.626;12.486;2022-07-06T01:17:01;2.47;;;1.67;;
12840;SDS011;6487;48.626;12.486;2022-07-06T01:19:31;3.47;;;1.30;;
12840;SDS011;6487;48.626;12.486;2022-07-06T01:22:01;2.77;;;1.40;;
12840;SDS011;6487;48.626;12.486;2022-07-06T01:24:30;2.13;;;1.57;;
12840;SDS011;6487;48.626;12.486;2022-07-06T01:26:58;2.57;;;1.83;;
12840;SDS011;6487;48.626;12.486;2022-07-06T01:29:27;5.70;;;1.50;;
12840;SDS011;6487;48.626;12.486;2022-07-06T01:31:55;4.07;;;1.50;;
12840;SDS011;6487;48.626;12.486;2022-07-06T01:34:24;2.17;;;1.57;;
12840;SDS011;6487;48.626;12.486;2022-07-06T01:36:52;2.80;;;1.50;;
12840;SDS011;6487;48.626;12.486;2022-07-06T01:39:22;2.10;;;1.90;;
12840;SDS011;6487;48.626;12.486;2022-07-06T01:41:51;4.37;;;1.50;;
12840;SDS011;6487;48.626;12.486;2022-07-06T01:44:19;1.70;;;1.47;;
12840;SDS011;6487;48.626;12.486;2022-07-06T01:46:47;2.40;;;1.60;;
12840;SDS011;6487;48.626;12.486;2022-07-06T01:49:16;1.47;;;1.37;;
12840;SDS011;6487;48.626;12.486;2022-07-06T01:51:44;4.13;;;2.07;;
12840;SDS011;6487;48.626;12.486;2022-07-06T01:54:13;3.10;;;1.70;;
12840;SDS011;6487;48.626;12.486;2022-07-06T01:56:42;3.80;;;1.80;;
12840;SDS011;6487;48.626;12.486;2022-07-06T01:59:11;1.90;;;1.70;;
12840;SDS011;6487;48.626;12.486;2022-07-06T02:01:39;1.63;;;1.30;;
12840;SDS011;6487;48.626;12.486;2022-07-06T02:04:08;2.07;;;1.53;;
12840;SDS011;6487;48.626;12.486;2022-07-06T02:06:36;3.43;;;1.53;;
12840;SDS011;6487;48.626;12.486;2022-07-06T02:09:05;2.53;;;1.70;;
12840;SDS011;6487;48.626;12.486;2022-07-06T02:11:33;2.00;;;1.50;;
12840;SDS011;6487;48.626;12.486;2022-07-06T02:14:03;1.60;;;1.50;;
12840;SDS011;6487;48.626;12.486;2022-07-06T02:16:31;1.90;;;1.70;;
12840;SDS011;6487;48.626;12.486;2022-07-06T02:19:00;3.57;;;1.70;;
12840;SDS011;6487;48.626;12.486;2022-07-06T02:21:28;3.10;;;1.93;;
12840;SDS011;6487;48.626;12.486;2022-07-06T02:23:57;4.13;;;1.60;;
12840;SDS011;6487;48.626;12.486;2022-07-06T02:26:25;4.83;;;2.10;;
12840;SDS011;6487;48.626;12.486;2022-07-06T02:28:53;3.43;;;1.70;;
12840;SDS011;6487;48.626;12.486;2022-07-06T02:31:23;2.53;;;1.67;;
12840;SDS011;6487;48.626;12.486;2022-07-06T02:33:51;2.63;;;1.80;;
12840;SDS011;6487;48.626;12.486;2022-07-06T02:36:20;2.17;;;1.70;;
12840;SDS011;6487;48.626;12.486;2022-07-06T02:38:48;3.37;;;1.77;;
12840;SDS011;6487;48.626;12.486;2022-07-06T02:41:16;4.00;;;1.63;;
12840;SDS011;6487;48.626;12.486;2022-07-06T02:43:45;2.73;;;1.77;;
12840;SDS011;6487;48.626;12.486;2022-07-06T02:46:13;1.87;;;1.67;;
12840;SDS011;6487;48.626;12.486;2022-07-06T02:48:43;1.77;;;1.50;;
12840;SDS011;6487;48.626;12.486;2022-07-06T02:51:11;2.70;;;1.70;;
12840;SDS011;6487;48.626;12.486;2022-07-06T02:53:40;3.93;;;1.73;;
12840;SDS011;6487;48.626;12.486;2022-07-06T02:56:08;2.27;;;1.63;;
12840;SDS011;6487;48.626;12.486;2022-07-06T02:58:36;2.00;;;1.70;;
12840;SDS011;6487;48.626;12.486;2022-07-06T03:01:05;3.57;;;1.70;;
12840;SDS011;6487;48.626;12.486;2022-07-06T03:03:33;2.20;;;1.70;;
12840;SDS011;6487;48.626;12.486;2022-07-06T03:06:03;1.97;;;1.77;;
12840;SDS011;6487;48.626;12.486;2022-07-06T03:08:32;1.97;;;1.60;;
12840;SDS011;6487;48.626;12.486;2022-07-06T03:11:01;2.93;;;1.40;;
12840;SDS011;6487;48.626;12.486;2022-07-06T03:13:30;2.77;;;1.50;;
12840;SDS011;6487;48.626;12.486;2022-07-06T03:15:58;7.00;;;1.80;;
12840;SDS011;6487;48.626;12.486;2022-07-06T03:18:26;3.23;;;1.70;;
12840;SDS011;6487;48.626;12.486;2022-07-06T03:20:56;2.07;;;1.70;;
12840;SDS011;6487;48.626;12.486;2022-07-06T03:23:26;2.20;;;1.70;;
12840;SDS011;6487;48.626;12.486;2022-07-06T03:25:54;2.37;;;1.73;;
12840;SDS011;6487;48.626;12.486;2022-07-06T03:28:22;4.07;;;2.00;;
12840;SDS011;6487;48.626;12.486;2022-07-06T03:30:51;3.00;;;1.90;;
12840;SDS011;6487;48.626;12.486;2022-07-06T03:33:20;2.87;;;1.87;;
12840;SDS011;6487;48.626;12.486;2022-07-06T03:35:48;1.67;;;1.57;;
12840;SDS011;6487;48.626;12.486;2022-07-06T03:38:16;4.80;;;2.00;;
12840;SDS011;6487;48.626;12.486;2022-07-06T03:40:47;2.70;;;1.80;;
12840;SDS011;6487;48.626;12.486;2022-07-06T03:43:15;3.13;;;1.47;;
12840;SDS011;6487;48.626;12.486;2022-07-06T03:45:44;2.63;;;1.40;;
12840;SDS011;6487;48.626;12.486;2022-07-06T03:48:12;3.10;;;1.70;;
12840;SDS011;6487;48.626;12.486;2022-07-06T03:50:40;1.87;;;1.53;;
12840;SDS011;6487;48.626;12.486;2022-07-06T03:53:09;2.30;;;2.10;;
12840;SDS011;6487;48.626;12.486;2022-07-06T03:55:37;3.27;;;1.53;;
12840;SDS011;6487;48.626;12.486;2022-07-06T03:58:07;3.37;;;1.70;;
12840;SDS011;6487;48.626;12.486;2022-07-06T04:00:35;4.53;;;1.93;;
12840;SDS011;6487;48.626;12.486;2022-07-06T04:03:04;2.43;;;1.60;;
12840;SDS011;6487;48.626;12.486;2022-07-06T04:05:32;5.43;;;2.27;;
12840;SDS011;6487;48.626;12.486;2022-07-06T04:08:00;2.83;;;1.90;;
12840;SDS011;6487;48.626;12.486;2022-07-06T04:10:29;2.80;;;2.10;;
12840;SDS011;6487;48.626;12.486;2022-07-06T04:12:57;2.33;;;1.93;;
12840;SDS011;6487;48.626;12.486;2022-07-06T04:15:27;1.83;;;1.43;;
12840;SDS011;6487;48.626;12.486;2022-07-06T04:17:55;1.80;;;1.70;;
12840;SDS011;6487;48.626;12.486;2022-07-06T04:20:24;2.03;;;1.83;;
12840;SDS011;6487;48.626;12.486;2022-07-06T04:22:52;2.10;;;1.80;;
12840;SDS011;6487;48.626;12.486;2022-07-06T04:25:21;2.63;;;1.97;;
12840;SDS011;6487;48.626;12.486;2022-07-06T04:27:49;3.37;;;2.40;;
12840;SDS011;6487;48.626;12.486;2022-07-06T04:30:18;4.97;;;2.50;;
12840;SDS011;6487;48.626;12.486;2022-07-06T04:32:48;10.03;;;3.00;;
12840;SDS011;6487;48.626;12.486;2022-07-06T04:35:16;3.13;;;2.20;;
12840;SDS011;6487;48.626;12.486;2022-07-06T04:37:44;3.97;;;2.40;;
12840;SDS011;6487;48.626;12.486;2022-07-06T04:40:13;6.47;;;2.50;;
12840;SDS011;6487;48.626;12.486;2022-07-06T04:42:44;3.30;;;2.00;;
12840;SDS011;6487;48.626;12.486;2022-07-06T04:45:12;2.97;;;2.63;;
12840;SDS011;6487;48.626;12.486;2022-07-06T04:47:41;8.70;;;2.83;;
12840;SDS011;6487;48.626;12.486;2022-07-06T04:50:12;2.70;;;2.33;;
12840;SDS011;6487;48.626;12.486;2022-07-06T04:52:40;3.80;;;2.43;;
12840;SDS011;6487;48.626;12.486;2022-07-06T04:55:08;2.20;;;2.00;;
12840;SDS011;6487;48.626;12.486;2022-07-06T04:57:37;6.20;;;2.30;;
12840;SDS011;6487;48.626;12.486;2022-07-06T05:00:06;3.33;;;2.40;;
12840;SDS011;6487;48.626;12.486;2022-07-06T05:02:35;6.43;;;2.53;;
12840;SDS011;6487;48.626;12.486;2022-07-06T05:05:04;2.73;;;2.23;;
12840;SDS011;6487;48.626;12.486;2022-07-06T05:07:37;4.83;;;2.50;;
12840;SDS011;6487;48.626;12.486;2022-07-06T05:10:07;3.83;;;2.67;;
12840;SDS011;6487;48.626;12.486;2022-07-06T05:12:37;4.00;;;2.50;;
12840;SDS011;6487;48.626;12.486;2022-07-06T05:15:06;2.83;;;2.07;;
12840;SDS011;6487;48.626;12.486;2022-07-06T05:17:36;5.27;;;2.50;;
12840;SDS011;6487;48.626;12.486;2022-07-06T05:20:05;3.10;;;2.30;;
12840;SDS011;6487;48.626;12.486;2022-07-06T05:22:34;2.30;;;2.10;;
12840;SDS011;6487;48.626;12.486;2022-07-06T05:25:11;4.00;;;2.37;;
12840;SDS011;6487;48.626;12.486;2022-07-06T05:27:40;5.50;;;2.40;;
12840;SDS011;6487;48.626;12.486;2022-07-06T05:30:09;3.10;;;2.30;;
12840;SDS011;6487;48.626;12.486;2022-07-06T05:32:38;2.17;;;1.83;;
12840;SDS011;6487;48.626;12.486;2022-07-06T05:35:07;3.40;;;1.97;;
12840;SDS011;6487;48.626;12.486;2022-07-06T05:37:57;5.17;;;2.30;;
12840;SDS011;6487;48.626;12.486;2022-07-06T05:40:25;6.37;;;2.07;;
12840;SDS011;6487;48.626;12.486;2022-07-06T05:42:54;4.47;;;2.03;;
12840;SDS011;6487;48.626;12.486;2022-07-06T05:45:22;4.93;;;1.90;;
12840;SDS011;6487;48.626;12.486;2022-07-06T05:47:50;2.30;;;1.97;;
12840;SDS011;6487;48.626;12.486;2022-07-06T05:50:36;3.27;;;1.93;;
12840;SDS011;6487;48.626;12.486;2022-07-06T05:53:06;2.63;;;1.70;;
12840;SDS011;6487;48.626;12.486;2022-07-06T05:55:44;2.50;;;2.30;;
12840;SDS011;6487;48.626;12.486;2022-07-06T05:58:13;2.33;;;2.10;;
12840;SDS011;6487;48.626;12.486;2022-07-06T06:00:44;3.67;;;1.70;;
12840;SDS011;6487;48.626;12.486;2022-07-06T06:03:13;2.20;;;1.63;;
12840;SDS011;6487;48.626;12.486;2022-07-06T06:05:41;2.00;;;1.80;;
12840;SDS011;6487;48.626;12.486;2022-07-06T06:08:11;2.53;;;1.83;;
12840;SDS011;6487;48.626;12.486;2022-07-06T06:10:39;3.20;;;2.03;;
12840;SDS011;6487;48.626;12.486;2022-07-06T06:13:08;3.30;;;2.23;;
12840;SDS011;6487;48.626;12.486;2022-07-06T06:15:36;3.77;;;2.50;;
12840;SDS011;6487;48.626;12.486;2022-07-06T06:18:05;3.30;;;2.40;;
12840;SDS011;6487;48.626;12.486;2022-07-06T06:20:33;2.57;;;1.70;;
12840;SDS011;6487;48.626;12.486;2022-07-06T06:23:01;4.40;;;2.13;;
12840;SDS011;6487;48.626;12.486;2022-07-06T06:25:33;1.93;;;1.73;;
12840;SDS011;6487;48.626;12.486;2022-07-06T06:28:03;4.80;;;1.97;;
12840;SDS011;6487;48.626;12.486;2022-07-06T06:30:34;2.83;;;2.10;;
12840;SDS011;6487;48.626;12.486;2022-07-06T06:33:06;4.77;;;2.00;;
12840;SDS011;6487;48.626;12.486;2022-07-06T06:35:37;2.80;;;1.90;;
12840;SDS011;6487;48.626;12.486;2022-07-06T06:38:10;3.97;;;2.03;;
12840;SDS011;6487;48.626;12.486;2022-07-06T06:40:40;2.53;;;1.93;;
12840;SDS011;6487;48.626;12.486;2022-07-06T06:43:08;2.50;;;2.10;;
12840;SDS011;6487;48.626;12.486;2022-07-06T06:45:37;2.63;;;2.07;;
12840;SDS011;6487;48.626;12.486;2022-07-06T06:48:05;3.03;;;1.93;;
12840;SDS011;6487;48.626;12.486;2022-07-06T06:50:42;4.03;;;1.90;;
12840;SDS011;6487;48.626;12.486;2022-07-06T06:53:10;2.67;;;1.50;;
12840;SDS011;6487;48.626;12.486;2022-07-06T06:55:40;3.07;;;2.17;;
12840;SDS011;6487;48.626;12.486;2022-07-06T06:58:09;4.23;;;2.10;;
12840;SDS011;6487;48.626;12.486;2022-07-06T07:00:37;3.43;;;1.93;;
12840;SDS011;6487;48.626;12.486;2022-07-06T07:03:05;2.20;;;2.00;;
12840;SDS011;6487;48.626;12.486;2022-07-06T07:05:34;1.80;;;1.70;;
12840;SDS011;6487;48.626;12.486;2022-07-06T07:08:02;3.23;;;1.80;;
12840;SDS011;6487;48.626;12.486;2022-07-06T07:10:32;3.33;;;1.80;;
12840;SDS011;6487;48.626;12.486;2022-07-06T07:13:02;3.80;;;1.67;;
12840;SDS011;6487;48.626;12.486;2022-07-06T07:15:30;2.93;;;2.00;;
12840;SDS011;6487;48.626;12.486;2022-07-06T07:17:59;2.00;;;1.63;;
12840;SDS011;6487;48.626;12.486;2022-07-06T07:20:27;7.20;;;1.70;;
12840;SDS011;6487;48.626;12.486;2022-07-06T07:22:57;2.63;;;1.90;;
12840;SDS011;6487;48.626;12.486;2022-07-06T07:25:25;5.47;;;1.93;;
12840;SDS011;6487;48.626;12.486;2022-07-06T07:27:54;1.87;;;1.70;;
12840;SDS011;6487;48.626;12.486;2022-07-06T07:30:24;1.93;;;1.77;;
12840;SDS011;6487;48.626;12.486;2022-07-06T07:32:52;8.27;;;2.40;;
12840;SDS011;6487;48.626;12.486;2022-07-06T07:35:22;5.63;;;2.00;;
12840;SDS011;6487;48.626;12.486;2022-07-06T07:37:50;4.53;;;1.90;;
12840;SDS011;6487;48.626;12.486;2022-07-06T07:40:19;2.07;;;1.87;;
12840;SDS011;6487;48.626;12.486;2022-07-06T07:42:48;2.50;;;2.10;;
12840;SDS011;6487;48.626;12.486;2022-07-06T07:45:16;2.77;;;1.83;;
12840;SDS011;6487;48.626;12.486;2022-07-06T07:47:46;3.83;;;2.00;;
12840;SDS011;6487;48.626;12.486;2022-07-06T07:50:15;2.13;;;1.90;;
12840;SDS011;6487;48.626;12.486;2022-07-06T07:52:44;2.33;;;1.60;;
12840;SDS011;6487;48.626;12.486;2022-07-06T07:55:12;2.87;;;2.13;;
12840;SDS011;6487;48.626;12.486;2022-07-06T07:58:01;4.03;;;2.07;;
12840;SDS011;6487;48.626;12.486;2022-07-06T08:00:29;2.87;;;2.00;;
12840;SDS011;6487;48.626;12.486;2022-07-06T08:02:59;3.70;;;1.97;;
12840;SDS011;6487;48.626;12.486;2022-07-06T08:05:27;3.23;;;2.07;;
12840;SDS011;6487;48.626;12.486;2022-07-06T08:07:56;2.50;;;1.80;;
12840;SDS011;6487;48.626;12.486;2022-07-06T08:10:24;4.50;;;2.17;;
12840;SDS011;6487;48.626;12.486;2022-07-06T08:12:53;4.17;;;2.10;;
12840;SDS011;6487;48.626;12.486;2022-07-06T08:15:21;1.97;;;1.87;;
12840;SDS011;6487;48.626;12.486;2022-07-06T08:17:50;2.33;;;1.80;;
12840;SDS011;6487;48.626;12.486;2022-07-06T08:20:19;2.43;;;1.77;;
12840;SDS011;6487;48.626;12.486;2022-07-06T08:22:48;3.17;;;1.80;;
12840;SDS011;6487;48.626;12.486;2022-07-06T08:25:17;3.97;;;1.60;;
12840;SDS011;6487;48.626;12.486;2022-07-06T08:27:45;2.60;;;1.80;;
12840;SDS011;6487;48.626;12.486;2022-07-06T08:30:14;1.90;;;1.70;;
12840;SDS011;6487;48.626;12.486;2022-07-06T08:32:43;2.30;;;1.87;;
12840;SDS011;6487;48.626;12.486;2022-07-06T08:35:33;2.57;;;1.73;;
12840;SDS011;6487;48.626;12.486;2022-07-06T08:38:01;2.50;;;1.67;;
12840;SDS011;6487;48.626;12.486;2022-07-06T08:40:31;3.13;;;1.50;;
12840;SDS011;6487;48.626;12.486;2022-07-06T08:43:02;3.37;;;1.80;;
12840;SDS011;6487;48.626;12.486;2022-07-06T08:45:31;5.30;;;1.90;;
12840;SDS011;6487;48.626;12.486;2022-07-06T08:48:04;2.17;;;1.75;;
12840;SDS011;6487;48.626;12.486;2022-07-06T08:50:35;3.63;;;2.00;;
12840;SDS011;6487;48.626;12.486;2022-07-06T08:53:04;2.58;;;1.80;;
12840;SDS011;6487;48.626;12.486;2022-07-06T08:55:33;2.90;;;1.67;;
12840;SDS011;6487;48.626;12.486;2022-07-06T09:00:33;2.22;;;1.52;;
12840;SDS011;6487;48.626;12.486;2022-07-06T09:03:02;1.92;;;1.73;;
12840;SDS011;6487;48.626;12.486;2022-07-06T09:05:32;3.92;;;1.65;;
12840;SDS011;6487;48.626;12.486;2022-07-06T09:08:03;5.75;;;1.80;;
12840;SDS011;6487;48.626;12.486;2022-07-06T09:10:32;2.10;;;1.90;;
12840;SDS011;6487;48.626;12.486;2022-07-06T09:13:03;4.43;;;1.63;;
12840;SDS011;6487;48.626;12.486;2022-07-06T09:15:33;2.13;;;1.92;;
12840;SDS011;6487;48.626;12.486;2022-07-06T09:18:05;3.53;;;1.77;;
12840;SDS011;6487;48.626;12.486;2022-07-06T09:20:35;1.80;;;1.70;;
12840;SDS011;6487;48.626;12.486;2022-07-06T09:23:04;2.75;;;1.90;;
12840;SDS011;6487;48.626;12.486;2022-07-06T09:25:41;2.35;;;1.70;;
12840;SDS011;6487;48.626;12.486;2022-07-06T09:28:15;2.20;;;1.63;;
12840;SDS011;6487;48.626;12.486;2022-07-06T09:30:44;4.85;;;1.85;;
12840;SDS011;6487;48.626;12.486;2022-07-06T09:33:12;3.33;;;1.90;;
12840;SDS011;6487;48.626;12.486;2022-07-06T09:35:46;2.38;;;1.60;;
12840;SDS011;6487;48.626;12.486;2022-07-06T09:38:15;8.18;;;2.50;;
12840;SDS011;6487;48.626;12.486;2022-07-06T09:40:44;3.60;;;1.75;;
12840;SDS011;6487;48.626;12.486;2022-07-06T09:43:14;1.88;;;1.60;;
12840;SDS011;6487;48.626;12.486;2022-07-06T09:45:45;1.95;;;1.80;;
12840;SDS011;6487;48.626;12.486;2022-07-06T09:48:17;2.63;;;1.67;;
12840;SDS011;6487;48.626;12.486;2022-07-06T09:50:51;2.60;;;1.88;;
12840;SDS011;6487;48.626;12.486;2022-07-06T09:53:22;3.15;;;1.67;;
12840;SDS011;6487;48.626;12.486;2022-07-06T09:55:52;1.90;;;1.80;;
12840;SDS011;6487;48.626;12.486;2022-07-06T09:58:22;2.15;;;1.52;;
12840;SDS011;6487;48.626;12.486;2022-07-06T10:01:10;1.90;;;1.80;;
12840;SDS011;6487;48.626;12.486;2022-07-06T10:03:39;1.80;;;1.50;;
12840;SDS011;6487;48.626;12.486;2022-07-06T10:06:09;4.53;;;2.03;;
12840;SDS011;6487;48.626;12.486;2022-07-06T10:08:39;2.25;;;1.80;;
12840;SDS011;6487;48.626;12.486;2022-07-06T10:11:08;1.67;;;1.58;;
12840;SDS011;6487;48.626;12.486;2022-07-06T10:13:41;2.28;;;1.70;;
12840;SDS011;6487;48.626;12.486;2022-07-06T10:16:11;4.88;;;2.05;;
12840;SDS011;6487;48.626;12.486;2022-07-06T10:18:41;3.55;;;1.73;;
12840;SDS011;6487;48.626;12.486;2022-07-06T10:21:11;3.35;;;1.90;;
12840;SDS011;6487;48.626;12.486;2022-07-06T10:23:40;1.92;;;1.55;;
12840;SDS011;6487;48.626;12.486;2022-07-06T10:26:09;2.08;;;1.73;;
12840;SDS011;6487;48.626;12.486;2022-07-06T10:28:39;4.80;;;1.80;;
12840;SDS011;6487;48.626;12.486;2022-07-06T10:31:09;3.70;;;1.77;;
12840;SDS011;6487;48.626;12.486;2022-07-06T10:33:38;1.88;;;1.67;;
12840;SDS011;6487;48.626;12.486;2022-07-06T10:36:08;5.05;;;1.63;;
12840;SDS011;6487;48.626;12.486;2022-07-06T10:38:38;2.58;;;1.80;;
12840;SDS011;6487;48.626;12.486;2022-07-06T10:41:08;3.13;;;1.75;;
12840;SDS011;6487;48.626;12.486;2022-07-06T10:43:36;3.15;;;1.70;;
12840;SDS011;6487;48.626;12.486;2022-07-06T10:46:06;3.10;;;1.73;;
12840;SDS011;6487;48.626;12.486;2022-07-06T10:48:37;2.92;;;1.80;;
12840;SDS011;6487;48.626;12.486;2022-07-06T10:51:06;1.98;;;1.80;;
12840;SDS011;6487;48.626;12.486;2022-07-06T10:53:36;8.88;;;2.40;;
12840;SDS011;6487;48.626;12.486;2022-07-06T10:56:07;3.35;;;1.70;;
12840;SDS011;6487;48.626;12.486;2022-07-06T10:58:40;1.70;;;1.60;;
12840;SDS011;6487;48.626;12.486;2022-07-06T11:01:14;1.80;;;1.70;;
12840;SDS011;6487;48.626;12.486;2022-07-06T11:03:44;2.22;;;1.65;;
12840;SDS011;6487;48.626;12.486;2022-07-06T11:06:14;3.25;;;1.83;;
12840;SDS011;6487;48.626;12.486;2022-07-06T11:08:48;2.38;;;2.17;;
12840;SDS011;6487;48.626;12.486;2022-07-06T11:11:36;3.17;;;2.03;;
12840;SDS011;6487;48.626;12.486;2022-07-06T11:14:10;3.17;;;1.80;;
12840;SDS011;6487;48.626;12.486;2022-07-06T11:19:30;1.73;;;1.55;;
12840;SDS011;6487;48.626;12.486;2022-07-06T11:22:04;2.33;;;1.40;;
12840;SDS011;6487;48.626;12.486;2022-07-06T11:24:37;1.60;;;1.50;;
12840;SDS011;6487;48.626;12.486;2022-07-06T11:27:08;3.42;;;1.67;;
12840;SDS011;6487;48.626;12.486;2022-07-06T11:29:36;1.50;;;1.40;;
12840;SDS011;6487;48.626;12.486;2022-07-06T11:32:06;3.30;;;1.48;;
12840;SDS011;6487;48.626;12.486;2022-07-06T11:34:38;1.85;;;1.55;;
12840;SDS011;6487;48.626;12.486;2022-07-06T11:37:09;2.58;;;1.70;;
12840;SDS011;6487;48.626;12.486;2022-07-06T11:39:41;3.63;;;1.65;;
12840;SDS011;6487;48.626;12.486;2022-07-06T11:42:11;3.08;;;1.50;;
12840;SDS011;6487;48.626;12.486;2022-07-06T11:44:41;5.15;;;2.33;;
12840;SDS011;6487;48.626;12.486;2022-07-06T11:47:10;1.60;;;1.50;;
12840;SDS011;6487;48.626;12.486;2022-07-06T11:49:49;2.95;;;1.92;;
12840;SDS011;6487;48.626;12.486;2022-07-06T11:52:18;2.50;;;1.80;;
12840;SDS011;6487;48.626;12.486;2022-07-06T11:54:56;1.52;;;1.42;;
12840;SDS011;6487;48.626;12.486;2022-07-06T11:57:26;1.88;;;1.42;;
12840;SDS011;6487;48.626;12.486;2022-07-06T11:59:59;3.22;;;1.48;;
12840;SDS011;6487;48.626;12.486;2022-07-06T12:02:28;2.38;;;1.75;;
12840;SDS011;6487;48.626;12.486;2022-07-06T12:04:57;2.75;;;1.52;;
12840;SDS011;6487;48.626;12.486;2022-07-06T12:07:26;2.20;;;1.85;;
12840;SDS011;6487;48.626;12.486;2022-07-06T12:09:56;2.58;;;1.60;;
12840;SDS011;6487;48.626;12.486;2022-07-06T12:12:24;1.63;;;1.52;;
12840;SDS011;6487;48.626;12.486;2022-07-06T12:14:53;6.47;;;1.73;;
12840;SDS011;6487;48.626;12.486;2022-07-06T12:17:21;1.83;;;1.30;;
12840;SDS011;6487;48.626;12.486;2022-07-06T12:19:52;1.85;;;1.63;;
12840;SDS011;6487;48.626;12.486;2022-07-06T12:22:24;2.00;;;1.80;;
12840;SDS011;6487;48.626;12.486;2022-07-06T12:24:53;1.67;;;1.58;;
12840;SDS011;6487;48.626;12.486;2022-07-06T12:27:22;2.58;;;1.60;;
12840;SDS011;6487;48.626;12.486;2022-07-06T12:29:51;2.55;;;1.65;;
12840;SDS011;6487;48.626;12.486;2022-07-06T12:32:20;5.32;;;1.70;;
12840;SDS011;6487;48.626;12.486;2022-07-06T12:35:01;2.80;;;1.50;;
12840;SDS011;6487;48.626;12.486;2022-07-06T12:37:31;5.53;;;1.63;;
12840;SDS011;6487;48.626;12.486;2022-07-06T12:39:59;2.35;;;2.00;;
12840;SDS011;6487;48.626;12.486;2022-07-06T12:42:29;3.10;;;1.50;;
12840;SDS011;6487;48.626;12.486;2022-07-06T12:44:57;1.75;;;1.30;;
12840;SDS011;6487;48.626;12.486;2022-07-06T12:47:26;5.60;;;1.95;;
12840;SDS011;6487;48.626;12.486;2022-07-06T12:50:04;2.35;;;1.50;;
12840;SDS011;6487;48.626;12.486;2022-07-06T12:52:35;2.15;;;1.55;;
12840;SDS011;6487;48.626;12.486;2022-07-06T12:55:05;1.75;;;1.40;;
12840;SDS011;6487;48.626;12.486;2022-07-06T12:57:43;6.35;;;1.77;;
12840;SDS011;6487;48.626;12.486;2022-07-06T13:00:13;1.85;;;1.75;;
12840;SDS011;6487;48.626;12.486;2022-07-06T13:02:44;2.25;;;1.73;;
12840;SDS011;6487;48.626;12.486;2022-07-06T13:05:35;3.30;;;1.85;;
12840;SDS011;6487;48.626;12.486;2022-07-06T13:08:05;2.10;;;1.42;;
12840;SDS011;6487;48.626;12.486;2022-07-06T13:10:35;3.47;;;1.50;;
12840;SDS011;6487;48.626;12.486;2022-07-06T13:13:05;2.35;;;1.75;;
12840;SDS011;6487;48.626;12.486;2022-07-06T13:15:36;1.35;;;1.25;;
12840;SDS011;6487;48.626;12.486;2022-07-06T13:18:04;1.60;;;1.50;;
12840;SDS011;6487;48.626;12.486;2022-07-06T13:20:38;4.70;;;1.88;;
12840;SDS011;6487;48.626;12.486;2022-07-06T13:23:07;2.83;;;1.70;;
12840;SDS011;6487;48.626;12.486;2022-07-06T13:25:36;2.75;;;1.35;;
12840;SDS011;6487;48.626;12.486;2022-07-06T13:28:05;1.70;;;1.52;;
12840;SDS011;6487;48.626;12.486;2022-07-06T13:30:34;2.08;;;1.35;;
12840;SDS011;6487;48.626;12.486;2022-07-06T13:33:02;1.60;;;1.50;;
12840;SDS011;6487;48.626;12.486;2022-07-06T13:35:30;1.95;;;1.60;;
12840;SDS011;6487;48.626;12.486;2022-07-06T13:37:59;1.50;;;1.38;;
12840;SDS011;6487;48.626;12.486;2022-07-06T13:40:28;3.05;;;1.60;;
12840;SDS011;6487;48.626;12.486;2022-07-06T13:42:56;2.20;;;1.40;;
12840;SDS011;6487;48.626;12.486;2022-07-06T13:45:26;3.15;;;1.33;;
12840;SDS011;6487;48.626;12.486;2022-07-06T13:47:54;2.75;;;1.30;;
12840;SDS011;6487;48.626;12.486;2022-07-06T13:50:23;6.43;;;1.45;;
12840;SDS011;6487;48.626;12.486;2022-07-06T13:52:54;2.25;;;1.27;;
12840;SDS011;6487;48.626;12.486;2022-07-06T13:55:22;3.25;;;1.40;;
12840;SDS011;6487;48.626;12.486;2022-07-06T13:57:50;2.28;;;1.40;;
12840;SDS011;6487;48.626;12.486;2022-07-06T14:00:19;1.30;;;1.20;;
12840;SDS011;6487;48.626;12.486;2022-07-06T14:02:49;1.77;;;1.40;;
12840;SDS011;6487;48.626;12.486;2022-07-06T14:05:17;1.35;;;1.25;;
12840;SDS011;6487;48.626;12.486;2022-07-06T14:07:46;1.75;;;1.40;;
12840;SDS011;6487;48.626;12.486;2022-07-06T14:10:14;1.58;;;1.25;;
12840;SDS011;6487;48.626;12.486;2022-07-06T14:12:43;3.08;;;1.40;;
12840;SDS011;6487;48.626;12.486;2022-07-06T14:15:11;2.88;;;1.30;;
12840;SDS011;6487;48.626;12.486;2022-07-06T14:17:39;1.73;;;1.23;;
12840;SDS011;6487;48.626;12.486;2022-07-06T14:20:10;2.55;;;1.20;;
12840;SDS011;6487;48.626;12.486;2022-07-06T14:22:38;1.80;;;1.45;;
12840;SDS011;6487;48.626;12.486;2022-07-06T14:25:07;1.75;;;1.40;;
12840;SDS011;6487;48.626;12.486;2022-07-06T14:27:36;1.30;;;1.20;;
12840;SDS011;6487;48.626;12.486;2022-07-06T14:30:07;2.22;;;1.60;;
12840;SDS011;6487;48.626;12.486;2022-07-06T14:32:37;1.20;;;1.20;;
12840;SDS011;6487;48.626;12.486;2022-07-06T14:35:05;2.72;;;1.00;;
12840;SDS011;6487;48.626;12.486;2022-07-06T14:37:35;2.90;;;1.40;;
12840;SDS011;6487;48.626;12.486;2022-07-06T14:40:04;2.72;;;1.25;;
12840;SDS011;6487;48.626;12.486;2022-07-06T14:42:34;2.22;;;1.15;;
12840;SDS011;6487;48.626;12.486;2022-07-06T14:45:02;1.65;;;1.30;;
12840;SDS011;6487;48.626;12.486;2022-07-06T14:47:31;1.42;;;1.17;;
12840;SDS011;6487;48.626;12.486;2022-07-06T14:49:59;1.27;;;1.17;;
12840;SDS011;6487;48.626;12.486;2022-07-06T14:52:28;1.63;;;1.20;;
12840;SDS011;6487;48.626;12.486;2022-07-06T14:54:57;1.35;;;1.10;;
12840;SDS011;6487;48.626;12.486;2022-07-06T14:57:27;2.35;;;1.13;;
12840;SDS011;6487;48.626;12.486;2022-07-06T14:59:55;1.33;;;1.23;;
12840;SDS011;6487;48.626;12.486;2022-07-06T15:02:24;2.10;;;1.48;;
12840;SDS011;6487;48.626;12.486;2022-07-06T15:04:52;2.05;;;1.50;;
12840;SDS011;6487;48.626;12.486;2022-07-06T15:07:20;2.78;;;1.17;;
12840;SDS011;6487;48.626;12.486;2022-07-06T15:09:49;1.13;;;1.02;;